Time;durP1;ratioP1;P1;durP2;ratioP2;P2;SDS_P1;SDS_P2;PMS_P1;PMS_P2;Temp;Humidity;BMP_temperature;BMP_pressure;BME280_temperature;BME280_humidity;BME280_pressure;Samples;Min_cycle;Max_cycle;Signal;HPM_P1;HPM_P2
2023/07/13 00:00:54;;;;;;;9.70;2.67;;;;;;;;;;5003033;28;20041;-58
2023/07/13 00:03:21;;;;;;;11.33;2.30;;;;;;;;;;5007692;28;20407;-58
2023/07/13 00:05:58;;;;;;;6.97;2.30;;;;;;;;;;5012661;28;20048;-58
2023/07/13 00:08:26;;;;;;;9.00;2.42;;;;;;;;;;5008684;28;20036;-58
2023/07/13 00:10:54;;;;;;;6.47;2.05;;;;;;;;;;4994666;28;20860;-57
2023/07/13 00:13:23;;;;;;;7.15;2.13;;;;;;;;;;5012212;28;20049;-58
2023/07/13 00:15:53;;;;;;;7.57;2.00;;;;;;;;;;5009470;28;20253;-57
2023/07/13 00:18:22;;;;;;;8.50;2.30;;;;;;;;;;5007044;28;20126;-57
2023/07/13 00:20:49;;;;;;;10.05;3.17;;;;;;;;;;5002386;28;20065;-57
2023/07/13 00:23:18;;;;;;;6.90;2.47;;;;;;;;;;5016114;28;20056;-58
2023/07/13 00:25:46;;;;;;;9.68;2.45;;;;;;;;;;5013645;28;20041;-58
2023/07/13 00:28:14;;;;;;;8.40;2.17;;;;;;;;;;5021230;28;20045;-57
2023/07/13 00:30:41;;;;;;;8.88;2.22;;;;;;;;;;5006139;28;20045;-58
2023/07/13 00:33:13;;;;;;;12.13;2.38;;;;;;;;;;5017675;28;20060;-58
2023/07/13 00:35:45;;;;;;;9.38;2.30;;;;;;;;;;5009842;28;20060;-58
2023/07/13 00:38:12;;;;;;;12.15;2.28;;;;;;;;;;5022111;28;20037;-58
2023/07/13 00:40:40;;;;;;;7.10;2.20;;;;;;;;;;5019088;28;20045;-58
2023/07/13 00:43:11;;;;;;;10.95;2.65;;;;;;;;;;5005823;28;20044;-58
2023/07/13 00:45:57;;;;;;;7.93;2.50;;;;;;;;;;4998130;28;20095;-58
2023/07/13 00:48:28;;;;;;;11.52;2.70;;;;;;;;;;5007478;28;20041;-57
2023/07/13 00:50:57;;;;;;;9.57;2.28;;;;;;;;;;5011528;28;20072;-58
2023/07/13 00:53:25;;;;;;;9.97;2.90;;;;;;;;;;5019295;28;20045;-58
2023/07/13 00:55:55;;;;;;;7.57;2.40;;;;;;;;;;5008137;28;20045;-58
2023/07/13 00:58:23;;;;;;;8.30;2.70;;;;;;;;;;5010987;28;20041;-58
2023/07/13 01:00:51;;;;;;;10.15;2.70;;;;;;;;;;5011964;28;20041;-58
2023/07/13 01:03:19;;;;;;;13.55;2.88;;;;;;;;;;5019656;28;20037;-54
2023/07/13 01:05:50;;;;;;;11.07;2.93;;;;;;;;;;4995929;28;20045;-58
2023/07/13 01:08:18;;;;;;;9.63;2.67;;;;;;;;;;5006167;28;20128;-57
2023/07/13 01:10:52;;;;;;;8.88;2.30;;;;;;;;;;5001177;28;20230;-58
2023/07/13 01:13:20;;;;;;;8.07;2.33;;;;;;;;;;5027468;28;20647;-58
2023/07/13 01:15:50;;;;;;;8.70;2.70;;;;;;;;;;5000025;28;20573;-57
2023/07/13 01:18:19;;;;;;;9.90;3.27;;;;;;;;;;5013183;28;20065;-57
2023/07/13 01:20:51;;;;;;;8.27;2.38;;;;;;;;;;5005763;28;20052;-57
2023/07/13 01:23:19;;;;;;;7.85;2.60;;;;;;;;;;5027592;28;20048;-57
2023/07/13 01:25:48;;;;;;;8.23;2.25;;;;;;;;;;5010778;28;20040;-57
2023/07/13 01:28:16;;;;;;;12.82;3.38;;;;;;;;;;5013192;28;20164;-57
2023/07/13 01:30:45;;;;;;;10.37;2.57;;;;;;;;;;5012337;28;20041;-58
2023/07/13 01:33:13;;;;;;;10.13;2.70;;;;;;;;;;5006147;28;20044;-58
2023/07/13 01:35:41;;;;;;;8.73;2.42;;;;;;;;;;5010110;28;20065;-57
2023/07/13 01:38:11;;;;;;;7.18;1.77;;;;;;;;;;5013151;28;20041;-58
2023/07/13 01:40:39;;;;;;;6.50;2.03;;;;;;;;;;4988735;28;20278;-58
2023/07/13 01:43:07;;;;;;;6.10;1.83;;;;;;;;;;5006806;28;20049;-58
2023/07/13 01:45:34;;;;;;;8.35;1.90;;;;;;;;;;5007770;28;20219;-58
2023/07/13 01:48:03;;;;;;;8.73;2.63;;;;;;;;;;4996391;28;20095;-58
2023/07/13 01:50:31;;;;;;;8.65;2.20;;;;;;;;;;5002854;28;20454;-57
2023/07/13 01:52:59;;;;;;;7.88;2.20;;;;;;;;;;5032115;28;20026;-58
2023/07/13 01:55:28;;;;;;;6.40;2.23;;;;;;;;;;5002218;28;20063;-58
2023/07/13 01:57:56;;;;;;;10.00;2.67;;;;;;;;;;5021713;28;20060;-58
2023/07/13 02:00:24;;;;;;;10.40;2.20;;;;;;;;;;4986739;28;20543;-58
2023/07/13 02:02:52;;;;;;;10.32;2.28;;;;;;;;;;5007188;28;20052;-58
2023/07/13 02:05:20;;;;;;;6.43;2.08;;;;;;;;;;5013327;28;20045;-57
2023/07/13 02:07:49;;;;;;;9.73;2.57;;;;;;;;;;5010463;28;20140;-57
2023/07/13 02:10:17;;;;;;;11.65;2.47;;;;;;;;;;5007769;28;20055;-57
2023/07/13 02:12:45;;;;;;;8.18;1.90;;;;;;;;;;5011704;28;20045;-57
2023/07/13 02:15:13;;;;;;;6.75;2.05;;;;;;;;;;5002089;28;20480;-58
2023/07/13 02:17:41;;;;;;;9.77;2.85;;;;;;;;;;5010960;28;20063;-58
2023/07/13 02:20:09;;;;;;;47.23;3.87;;;;;;;;;;5021184;28;20041;-57
2023/07/13 02:22:37;;;;;;;10.43;3.30;;;;;;;;;;5000882;28;20041;-57
2023/07/13 02:25:05;;;;;;;7.22;2.72;;;;;;;;;;5016264;28;20037;-57
2023/07/13 02:27:34;;;;;;;11.20;2.38;;;;;;;;;;5010589;28;20049;-58
2023/07/13 02:30:04;;;;;;;11.13;2.35;;;;;;;;;;5011972;28;20033;-58
2023/07/13 02:32:33;;;;;;;6.77;2.20;;;;;;;;;;5011840;28;20053;-58
2023/07/13 02:35:01;;;;;;;8.57;2.33;;;;;;;;;;5013459;28;20457;-57
2023/07/13 02:37:29;;;;;;;9.55;3.03;;;;;;;;;;4993730;28;20056;-58
2023/07/13 02:39:58;;;;;;;8.75;2.58;;;;;;;;;;5019921;28;20037;-58
2023/07/13 02:42:26;;;;;;;8.80;2.40;;;;;;;;;;5013903;28;20060;-58
2023/07/13 02:44:53;;;;;;;8.57;2.70;;;;;;;;;;5032488;28;20045;-58
2023/07/13 02:47:23;;;;;;;7.93;2.70;;;;;;;;;;5018423;28;20040;-58
2023/07/13 02:49:51;;;;;;;7.30;2.67;;;;;;;;;;5028534;28;20041;-57
2023/07/13 02:52:19;;;;;;;7.55;2.67;;;;;;;;;;4999124;28;20045;-58
2023/07/13 02:54:46;;;;;;;7.43;2.53;;;;;;;;;;5020807;28;20036;-58
2023/07/13 02:57:14;;;;;;;11.00;2.93;;;;;;;;;;5000774;28;20053;-58
2023/07/13 02:59:42;;;;;;;5.40;2.28;;;;;;;;;;5026633;28;20033;-57
2023/07/13 03:02:12;;;;;;;8.35;2.38;;;;;;;;;;5005649;28;20126;-57
2023/07/13 03:04:41;;;;;;;10.70;2.85;;;;;;;;;;4974514;28;20057;-56
2023/07/13 03:07:09;;;;;;;13.10;2.67;;;;;;;;;;5007629;28;20041;-57
2023/07/13 03:09:37;;;;;;;9.03;3.03;;;;;;;;;;5016321;28;20050;-58
2023/07/13 03:12:05;;;;;;;8.60;2.63;;;;;;;;;;4971913;28;20045;-58
2023/07/13 03:14:33;;;;;;;9.10;3.15;;;;;;;;;;5016531;28;20045;-58
2023/07/13 03:17:02;;;;;;;7.53;2.60;;;;;;;;;;5007294;28;20071;-58
2023/07/13 03:19:31;;;;;;;11.25;3.63;;;;;;;;;;5011765;28;20060;-58
2023/07/13 03:22:00;;;;;;;10.83;2.67;;;;;;;;;;5014593;28;20499;-58
2023/07/13 03:24:28;;;;;;;7.32;2.53;;;;;;;;;;5019138;28;20033;-57
2023/07/13 03:26:58;;;;;;;7.95;2.95;;;;;;;;;;5012106;28;20041;-58
2023/07/13 03:29:26;;;;;;;8.32;2.75;;;;;;;;;;5006036;28;20037;-58
2023/07/13 03:31:53;;;;;;;10.05;2.45;;;;;;;;;;5006045;28;20188;-58
2023/07/13 03:34:21;;;;;;;11.13;2.73;;;;;;;;;;4995712;28;20072;-57
2023/07/13 03:36:49;;;;;;;12.00;3.10;;;;;;;;;;5002138;28;20501;-58
2023/07/13 03:39:18;;;;;;;10.20;2.35;;;;;;;;;;5011474;28;20177;-58
2023/07/13 03:41:46;;;;;;;6.65;2.42;;;;;;;;;;5001281;28;20045;-57
2023/07/13 03:44:14;;;;;;;8.88;2.60;;;;;;;;;;4989508;28;20132;-57
2023/07/13 03:46:41;;;;;;;9.30;2.47;;;;;;;;;;5010460;28;20041;-58
2023/07/13 03:49:10;;;;;;;7.22;2.63;;;;;;;;;;5005218;28;20057;-57
2023/07/13 03:51:37;;;;;;;10.35;3.30;;;;;;;;;;5009785;28;20046;-58
2023/07/13 03:54:06;;;;;;;9.18;2.75;;;;;;;;;;4997731;28;20736;-57
2023/07/13 03:56:35;;;;;;;8.30;2.47;;;;;;;;;;5015792;28;20037;-58
2023/07/13 03:59:05;;;;;;;9.17;2.60;;;;;;;;;;4993358;28;22184;-57
2023/07/13 04:01:32;;;;;;;8.55;3.08;;;;;;;;;;5012955;28;20567;-58
2023/07/13 04:04:06;;;;;;;9.50;2.67;;;;;;;;;;4996543;28;20111;-58
2023/07/13 04:06:34;;;;;;;11.38;3.10;;;;;;;;;;5012077;28;20124;-58
2023/07/13 04:09:03;;;;;;;10.93;3.10;;;;;;;;;;5010802;28;20500;-58
2023/07/13 04:11:36;;;;;;;11.00;2.90;;;;;;;;;;5011995;28;20483;-58
2023/07/13 04:14:05;;;;;;;9.57;3.03;;;;;;;;;;5013057;28;20041;-57
2023/07/13 04:16:33;;;;;;;8.63;2.65;;;;;;;;;;5011320;28;20128;-61
2023/07/13 04:19:01;;;;;;;13.05;3.08;;;;;;;;;;5007970;28;20393;-58
2023/07/13 04:21:30;;;;;;;12.40;2.88;;;;;;;;;;4995808;28;20044;-57
2023/07/13 04:23:58;;;;;;;12.47;3.47;;;;;;;;;;5014642;28;20038;-57
2023/07/13 04:26:26;;;;;;;10.10;2.50;;;;;;;;;;4999041;28;20128;-57
2023/07/13 04:28:53;;;;;;;9.32;2.42;;;;;;;;;;5015866;28;20080;-57
2023/07/13 04:31:23;;;;;;;7.50;2.33;;;;;;;;;;4988569;28;20033;-58
2023/07/13 04:33:51;;;;;;;7.93;2.38;;;;;;;;;;5021690;28;20051;-58
2023/07/13 04:36:20;;;;;;;7.40;2.67;;;;;;;;;;5016348;28;20317;-57
2023/07/13 04:38:48;;;;;;;7.10;3.08;;;;;;;;;;5009560;28;20040;-58
2023/07/13 04:41:18;;;;;;;9.18;2.83;;;;;;;;;;5002074;28;20044;-58
2023/07/13 04:43:46;;;;;;;10.10;2.88;;;;;;;;;;5010527;28;20038;-57
2023/07/13 04:46:14;;;;;;;9.90;3.28;;;;;;;;;;5007500;28;20471;-58
2023/07/13 04:48:43;;;;;;;6.90;2.80;;;;;;;;;;5001869;28;20067;-58
2023/07/13 04:51:11;;;;;;;10.65;2.65;;;;;;;;;;5006330;28;20030;-57
2023/07/13 04:53:39;;;;;;;10.43;3.00;;;;;;;;;;4995834;28;20045;-57
2023/07/13 04:56:06;;;;;;;7.70;2.67;;;;;;;;;;5013630;28;20037;-57
2023/07/13 04:58:35;;;;;;;7.90;2.30;;;;;;;;;;4998133;28;20034;-58
2023/07/13 05:01:03;;;;;;;9.60;2.67;;;;;;;;;;5028069;28;20063;-58
2023/07/13 05:03:31;;;;;;;9.85;2.58;;;;;;;;;;4987504;28;20545;-58
2023/07/13 05:06:04;;;;;;;9.23;3.08;;;;;;;;;;5022752;28;20128;-58
2023/07/13 05:08:32;;;;;;;9.85;2.55;;;;;;;;;;4999929;28;20045;-58
2023/07/13 05:11:00;;;;;;;6.55;3.20;;;;;;;;;;5010479;28;20051;-58
2023/07/13 05:13:28;;;;;;;11.23;2.90;;;;;;;;;;5006965;28;20049;-57
2023/07/13 05:15:57;;;;;;;7.20;2.22;;;;;;;;;;5027893;28;20072;-57
2023/07/13 05:18:25;;;;;;;13.40;2.85;;;;;;;;;;5010919;28;20104;-57
2023/07/13 05:20:58;;;;;;;7.70;2.10;;;;;;;;;;5032281;28;20546;-58
2023/07/13 05:23:30;;;;;;;9.07;2.28;;;;;;;;;;5020776;28;20484;-58
2023/07/13 05:25:58;;;;;;;6.83;2.23;;;;;;;;;;5004237;28;20571;-58
2023/07/13 05:28:26;;;;;;;8.48;2.72;;;;;;;;;;5002647;28;20403;-58
2023/07/13 05:30:55;;;;;;;8.07;2.75;;;;;;;;;;5009934;28;20067;-58
2023/07/13 05:33:24;;;;;;;7.90;2.58;;;;;;;;;;5010989;28;20091;-58
2023/07/13 05:35:51;;;;;;;7.95;3.22;;;;;;;;;;5003022;28;20230;-58
2023/07/13 05:38:19;;;;;;;11.37;2.97;;;;;;;;;;5009226;28;20476;-58
2023/07/13 05:40:48;;;;;;;14.00;3.25;;;;;;;;;;4992452;28;20072;-57
2023/07/13 05:43:16;;;;;;;10.45;2.65;;;;;;;;;;5023739;28;20056;-58
2023/07/13 05:45:44;;;;;;;9.23;2.67;;;;;;;;;;5006064;28;20046;-58
2023/07/13 05:48:11;;;;;;;9.52;2.50;;;;;;;;;;5037846;28;20167;-58
2023/07/13 05:50:39;;;;;;;11.83;3.10;;;;;;;;;;4989698;28;20045;-58
2023/07/13 05:53:07;;;;;;;12.95;2.80;;;;;;;;;;5012094;28;20037;-58
2023/07/13 05:55:35;;;;;;;8.00;2.47;;;;;;;;;;4990670;28;20033;-59
2023/07/13 05:58:03;;;;;;;7.22;2.40;;;;;;;;;;5006965;28;20037;-57
2023/07/13 06:00:31;;;;;;;9.43;2.47;;;;;;;;;;4999706;28;20045;-58
2023/07/13 06:02:59;;;;;;;7.73;2.27;;;;;;;;;;5008866;28;20052;-57
2023/07/13 06:05:28;;;;;;;9.35;2.35;;;;;;;;;;5012820;28;20103;-58
2023/07/13 06:07:56;;;;;;;10.35;2.67;;;;;;;;;;5009490;28;20095;-57
2023/07/13 06:10:24;;;;;;;8.80;2.65;;;;;;;;;;4992873;28;20128;-57
2023/07/13 06:12:52;;;;;;;9.43;2.70;;;;;;;;;;5012001;28;20037;-58
2023/07/13 06:15:22;;;;;;;9.47;2.27;;;;;;;;;;5002432;28;20037;-56
2023/07/13 06:17:50;;;;;;;12.65;2.70;;;;;;;;;;5022686;28;20579;-58
2023/07/13 06:20:17;;;;;;;8.15;2.35;;;;;;;;;;5011679;28;20041;-57
2023/07/13 06:22:45;;;;;;;8.55;2.67;;;;;;;;;;4997343;28;20037;-58
2023/07/13 06:25:13;;;;;;;12.43;2.92;;;;;;;;;;5018257;28;20041;-58
2023/07/13 06:27:41;;;;;;;7.60;2.63;;;;;;;;;;5010159;28;20055;-57
2023/07/13 06:30:09;;;;;;;8.57;2.97;;;;;;;;;;5009682;28;20037;-58
2023/07/13 06:32:38;;;;;;;8.05;2.70;;;;;;;;;;5005808;28;20045;-57
2023/07/13 06:35:08;;;;;;;8.05;2.53;;;;;;;;;;4988915;28;20049;-58
2023/07/13 06:37:36;;;;;;;6.30;2.72;;;;;;;;;;5013686;28;20049;-57
2023/07/13 06:40:04;;;;;;;6.17;2.17;;;;;;;;;;5010820;28;20034;-58
2023/07/13 06:42:32;;;;;;;8.73;2.25;;;;;;;;;;5019444;28;20060;-58
2023/07/13 06:45:00;;;;;;;9.85;2.35;;;;;;;;;;5013543;28;20480;-58
2023/07/13 06:47:28;;;;;;;9.02;2.40;;;;;;;;;;5009242;28;20124;-58
2023/07/13 06:50:00;;;;;;;9.15;2.42;;;;;;;;;;5026109;28;20050;-58
2023/07/13 06:52:29;;;;;;;7.70;2.57;;;;;;;;;;5007463;28;20260;-57
2023/07/13 06:54:57;;;;;;;6.93;1.80;;;;;;;;;;5026500;28;20068;-57
2023/07/13 06:57:25;;;;;;;8.50;1.90;;;;;;;;;;5016261;28;20119;-58
2023/07/13 06:59:54;;;;;;;9.98;1.85;;;;;;;;;;5026467;28;20040;-58
2023/07/13 07:02:23;;;;;;;7.07;2.42;;;;;;;;;;5014488;28;20136;-58
2023/07/13 07:04:51;;;;;;;10.33;1.90;;;;;;;;;;5012206;28;20124;-58
2023/07/13 07:07:20;;;;;;;9.82;2.65;;;;;;;;;;5014990;28;20037;-58
2023/07/13 07:09:48;;;;;;;10.32;2.30;;;;;;;;;;5013749;28;20033;-58
2023/07/13 07:12:16;;;;;;;9.23;2.53;;;;;;;;;;5001992;28;20041;-58
2023/07/13 07:14:43;;;;;;;7.28;2.10;;;;;;;;;;5016439;28;20511;-58
2023/07/13 07:17:12;;;;;;;9.03;1.97;;;;;;;;;;5015640;28;20730;-58
2023/07/13 07:19:40;;;;;;;8.00;1.98;;;;;;;;;;5019578;28;20043;-54
2023/07/13 07:22:08;;;;;;;9.40;2.30;;;;;;;;;;5006490;28;20045;-58
2023/07/13 07:24:37;;;;;;;6.50;1.60;;;;;;;;;;5009068;28;20048;-58
2023/07/13 07:27:06;;;;;;;7.75;2.20;;;;;;;;;;5014445;28;20042;-58
2023/07/13 07:29:37;;;;;;;6.93;2.00;;;;;;;;;;5018237;28;20040;-58
2023/07/13 07:32:07;;;;;;;6.72;2.08;;;;;;;;;;5010901;28;20042;-58
2023/07/13 07:34:55;;;;;;;5.32;1.80;;;;;;;;;;5021541;28;20057;-58
2023/07/13 07:37:23;;;;;;;10.27;2.88;;;;;;;;;;5002250;28;20038;-58
2023/07/13 07:40:12;;;;;;;7.07;2.25;;;;;;;;;;4993858;28;20146;-58
2023/07/13 07:42:43;;;;;;;5.20;2.00;;;;;;;;;;5021595;28;20368;-58
2023/07/13 07:45:11;;;;;;;6.25;2.28;;;;;;;;;;5004769;28;20640;-59
2023/07/13 07:47:39;;;;;;;9.80;2.50;;;;;;;;;;5010363;28;20926;-58
2023/07/13 07:50:07;;;;;;;7.18;1.80;;;;;;;;;;5001502;28;20045;-58
2023/07/13 07:52:35;;;;;;;9.45;2.22;;;;;;;;;;5009634;28;20048;-57
2023/07/13 07:55:03;;;;;;;7.50;1.90;;;;;;;;;;4669351;28;10000213;-57
2023/07/13 07:57:39;;;;;;;7.93;1.90;;;;;;;;;;5027604;28;20818;-58
2023/07/13 08:00:10;;;;;;;9.15;2.95;;;;;;;;;;4996997;28;20733;-59
2023/07/13 08:02:42;;;;;;;5.45;1.50;;;;;;;;;;5009887;28;20874;-57
2023/07/13 08:05:30;;;;;;;6.28;1.75;;;;;;;;;;4996500;28;20493;-58
2023/07/13 08:08:02;;;;;;;6.77;1.93;;;;;;;;;;5017154;28;20048;-58
2023/07/13 08:10:35;;;;;;;8.25;1.80;;;;;;;;;;4645690;28;10000152;-58
2023/07/13 08:13:05;;;;;;;6.22;1.80;;;;;;;;;;4983770;28;20561;-58
2023/07/13 08:15:35;;;;;;;7.73;2.07;;;;;;;;;;5007157;28;20067;-58
2023/07/13 08:18:03;;;;;;;7.28;1.50;;;;;;;;;;5013933;28;20046;-58
2023/07/13 08:20:31;;;;;;;7.95;2.17;;;;;;;;;;4999905;28;20381;-58
2023/07/13 08:22:59;;;;;;;4.65;1.83;;;;;;;;;;4998854;28;20292;-58
2023/07/13 08:25:27;;;;;;;6.97;1.48;;;;;;;;;;5021638;28;20600;-58
2023/07/13 08:27:54;;;;;;;8.03;2.00;;;;;;;;;;5002676;28;20029;-58
2023/07/13 08:30:24;;;;;;;7.65;2.63;;;;;;;;;;5016605;28;20488;-59
2023/07/13 08:32:51;;;;;;;10.77;2.25;;;;;;;;;;5004126;28;20033;-58
2023/07/13 08:35:19;;;;;;;10.60;2.47;;;;;;;;;;5011390;28;20092;-58
2023/07/13 08:37:47;;;;;;;10.25;2.28;;;;;;;;;;5004895;28;20049;-58
2023/07/13 08:40:15;;;;;;;8.80;2.37;;;;;;;;;;4995103;28;20037;-58
2023/07/13 08:42:45;;;;;;;9.30;1.70;;;;;;;;;;5016147;28;20380;-57
2023/07/13 08:45:19;;;;;;;5.65;2.00;;;;;;;;;;5014582;28;20048;-58
2023/07/13 08:47:54;;;;;;;8.60;2.03;;;;;;;;;;5019808;28;20037;-57
2023/07/13 08:50:24;;;;;;;9.38;2.42;;;;;;;;;;5000099;28;20099;-57
2023/07/13 08:52:53;;;;;;;6.70;2.23;;;;;;;;;;5020788;28;20055;-57
2023/07/13 08:55:22;;;;;;;7.03;1.92;;;;;;;;;;4997790;28;20033;-57
2023/07/13 08:57:55;;;;;;;6.57;1.77;;;;;;;;;;5017578;28;20079;-57
2023/07/13 09:00:24;;;;;;;4.45;1.60;;;;;;;;;;5001005;28;20363;-57
2023/07/13 09:02:55;;;;;;;8.27;1.90;;;;;;;;;;4993613;28;20068;-58
2023/07/13 09:05:25;;;;;;;6.40;1.80;;;;;;;;;;5018791;28;20033;-58
2023/07/13 09:08:05;;;;;;;9.40;2.05;;;;;;;;;;4974295;28;20041;-57
2023/07/13 09:10:45;;;;;;;5.70;1.75;;;;;;;;;;4971666;28;20614;-57
2023/07/13 09:13:21;;;;;;;5.10;1.60;;;;;;;;;;4973765;28;20186;-57
2023/07/13 09:15:51;;;;;;;6.22;1.60;;;;;;;;;;4980444;28;20049;-58
2023/07/13 09:18:24;;;;;;;5.47;1.30;;;;;;;;;;4994780;28;20128;-57
2023/07/13 09:20:54;;;;;;;6.00;1.67;;;;;;;;;;5015022;28;20041;-57
2023/07/13 09:23:23;;;;;;;5.45;1.70;;;;;;;;;;4992315;28;20033;-58
2023/07/13 09:25:55;;;;;;;6.90;1.50;;;;;;;;;;5002561;28;20037;-60
2023/07/13 09:28:25;;;;;;;5.32;1.23;;;;;;;;;;5012502;28;20045;-58
2023/07/13 09:30:55;;;;;;;6.23;1.40;;;;;;;;;;5002795;28;20056;-58
2023/07/13 09:33:24;;;;;;;3.80;1.13;;;;;;;;;;5016723;28;20051;-59
2023/07/13 09:35:57;;;;;;;4.60;1.40;;;;;;;;;;5013230;28;20064;-58
2023/07/13 09:38:28;;;;;;;6.55;1.10;;;;;;;;;;5013518;28;20198;-59
2023/07/13 09:41:02;;;;;;;5.80;1.65;;;;;;;;;;5012298;28;20492;-59
2023/07/13 09:43:31;;;;;;;5.40;1.53;;;;;;;;;;5011868;28;20406;-58
2023/07/13 09:45:59;;;;;;;4.80;1.42;;;;;;;;;;5006924;28;20034;-58
2023/07/13 09:48:35;;;;;;;4.60;1.20;;;;;;;;;;5026952;28;20048;-59
2023/07/13 09:51:08;;;;;;;4.55;1.25;;;;;;;;;;4993638;28;20435;-57
2023/07/13 09:53:37;;;;;;;4.03;1.40;;;;;;;;;;5008228;28;20045;-57
2023/07/13 09:56:04;;;;;;;3.93;1.23;;;;;;;;;;5015270;28;20049;-59
2023/07/13 09:58:35;;;;;;;4.90;1.40;;;;;;;;;;4997191;28;20046;-57
2023/07/13 10:01:04;;;;;;;6.53;1.50;;;;;;;;;;5005350;28;20076;-57
2023/07/13 10:03:39;;;;;;;4.50;1.30;;;;;;;;;;5009902;28;20480;-58
2023/07/13 10:06:12;;;;;;;4.47;1.38;;;;;;;;;;5012099;28;20044;-58
2023/07/13 10:08:40;;;;;;;6.23;1.60;;;;;;;;;;4999466;28;20334;-55
2023/07/13 10:11:10;;;;;;;5.30;1.33;;;;;;;;;;4649810;28;9999955;-58
2023/07/13 10:13:43;;;;;;;7.55;1.67;;;;;;;;;;5000433;28;20393;-58
2023/07/13 10:16:13;;;;;;;4.20;1.48;;;;;;;;;;5011503;28;20072;-58
2023/07/13 10:18:44;;;;;;;5.13;1.15;;;;;;;;;;5011768;28;20044;-57
2023/07/13 10:21:14;;;;;;;6.05;2.28;;;;;;;;;;4994793;28;20129;-58
2023/07/13 10:23:45;;;;;;;5.00;1.80;;;;;;;;;;5009439;28;20502;-58
2023/07/13 10:26:16;;;;;;;5.20;1.73;;;;;;;;;;4994838;28;20696;-58
2023/07/13 10:28:47;;;;;;;6.18;1.70;;;;;;;;;;5011998;28;20525;-57
2023/07/13 10:31:16;;;;;;;5.68;1.70;;;;;;;;;;4989370;28;20055;-58
2023/07/13 10:33:45;;;;;;;6.70;1.75;;;;;;;;;;5010903;28;20053;-57
2023/07/13 10:36:16;;;;;;;5.50;2.03;;;;;;;;;;4999958;28;20045;-57
2023/07/13 10:38:47;;;;;;;5.40;1.88;;;;;;;;;;5001255;28;20128;-58
2023/07/13 10:41:17;;;;;;;7.50;1.85;;;;;;;;;;5005112;28;20051;-58
2023/07/13 10:43:49;;;;;;;8.00;1.48;;;;;;;;;;4997287;28;20043;-58
2023/07/13 10:46:18;;;;;;;6.35;1.80;;;;;;;;;;5004123;28;20116;-58
2023/07/13 10:48:50;;;;;;;7.00;2.20;;;;;;;;;;5000389;28;20705;-58
2023/07/13 10:51:20;;;;;;;4.72;1.20;;;;;;;;;;4998848;28;20499;-58
2023/07/13 10:54:09;;;;;;;5.70;1.42;;;;;;;;;;4984382;28;20703;-58
2023/07/13 10:56:40;;;;;;;4.78;1.77;;;;;;;;;;5009181;28;20049;-58
2023/07/13 10:59:27;;;;;;;4.78;1.63;;;;;;;;;;5012009;28;20045;-57
2023/07/13 11:01:58;;;;;;;5.83;1.70;;;;;;;;;;4984990;28;20804;-58
2023/07/13 11:04:27;;;;;;;6.65;2.42;;;;;;;;;;5010272;28;20518;-59
2023/07/13 11:06:57;;;;;;;6.43;2.10;;;;;;;;;;5019402;28;20403;-59
2023/07/13 11:09:33;;;;;;;6.68;1.40;;;;;;;;;;4990671;28;20049;-58
2023/07/13 11:12:03;;;;;;;5.38;1.75;;;;;;;;;;4990805;28;20033;-57
2023/07/13 11:14:32;;;;;;;7.13;1.63;;;;;;;;;;4991483;28;20045;-58
2023/07/13 11:17:20;;;;;;;5.22;1.67;;;;;;;;;;4999683;28;20055;-58
2023/07/13 11:19:52;;;;;;;5.63;1.70;;;;;;;;;;4992446;28;20487;-58
2023/07/13 11:22:25;;;;;;;7.47;2.10;;;;;;;;;;4994743;28;20436;-57
2023/07/13 11:25:00;;;;;;;6.85;1.52;;;;;;;;;;4972381;28;20036;-57
2023/07/13 11:27:37;;;;;;;6.20;1.90;;;;;;;;;;5003047;28;20037;-58
2023/07/13 11:30:09;;;;;;;8.45;2.20;;;;;;;;;;5000136;28;20574;-58
2023/07/13 11:32:37;;;;;;;6.32;1.80;;;;;;;;;;4989974;28;20047;-58
2023/07/13 11:35:05;;;;;;;6.25;1.77;;;;;;;;;;4997814;28;20076;-58
2023/07/13 11:37:34;;;;;;;5.40;1.60;;;;;;;;;;4997480;28;20584;-58
2023/07/13 11:40:02;;;;;;;4.83;1.23;;;;;;;;;;5005660;28;20056;-58
2023/07/13 11:42:32;;;;;;;6.57;1.35;;;;;;;;;;4985926;28;20674;-58
2023/07/13 11:45:01;;;;;;;5.90;1.70;;;;;;;;;;5014152;28;20051;-56
2023/07/13 11:47:40;;;;;;;4.32;1.50;;;;;;;;;;4992089;28;20041;-58
2023/07/13 11:50:18;;;;;;;4.38;1.45;;;;;;;;;;5008021;28;20041;-58
2023/07/13 11:52:48;;;;;;;7.70;3.20;;;;;;;;;;5000443;28;20045;-58
2023/07/13 11:55:17;;;;;;;9.40;4.40;;;;;;;;;;5004654;28;20033;-58
2023/07/13 11:57:47;;;;;;;5.25;1.38;;;;;;;;;;5006158;28;20668;-59
2023/07/13 12:00:17;;;;;;;5.05;1.70;;;;;;;;;;4999397;28;20581;-58
2023/07/13 12:02:48;;;;;;;4.78;1.25;;;;;;;;;;5017152;28;20095;-59
2023/07/13 12:05:17;;;;;;;5.27;1.43;;;;;;;;;;4988730;28;20041;-58
2023/07/13 12:07:46;;;;;;;5.32;1.50;;;;;;;;;;5003634;28;20138;-59
2023/07/13 12:10:18;;;;;;;4.32;1.40;;;;;;;;;;4991919;28;20060;-58
2023/07/13 12:12:48;;;;;;;7.18;1.42;;;;;;;;;;4993837;28;20041;-58
2023/07/13 12:15:17;;;;;;;5.45;1.65;;;;;;;;;;4995471;28;22012;-58
2023/07/13 12:17:45;;;;;;;5.47;1.37;;;;;;;;;;5009639;28;20059;-58
2023/07/13 12:20:22;;;;;;;5.63;1.80;;;;;;;;;;5005269;28;20065;-58
2023/07/13 12:22:51;;;;;;;4.22;1.50;;;;;;;;;;4987571;28;20958;-58
2023/07/13 12:25:19;;;;;;;4.55;1.35;;;;;;;;;;5005175;28;20494;-57
2023/07/13 12:27:49;;;;;;;5.80;1.45;;;;;;;;;;4992863;28;20040;-57
2023/07/13 12:30:26;;;;;;;4.47;0.97;;;;;;;;;;5005930;28;20534;-58
2023/07/13 12:32:57;;;;;;;5.25;1.73;;;;;;;;;;4994307;28;20041;-58
2023/07/13 12:35:32;;;;;;;4.82;1.30;;;;;;;;;;4652946;28;10000290;-57
2023/07/13 12:38:00;;;;;;;3.70;1.10;;;;;;;;;;5008157;28;20056;-57
2023/07/13 12:40:32;;;;;;;4.97;1.77;;;;;;;;;;4985300;28;20064;-58
2023/07/13 12:43:06;;;;;;;4.38;0.98;;;;;;;;;;5000127;28;20037;-58
2023/07/13 12:45:35;;;;;;;5.80;1.20;;;;;;;;;;4990528;28;20056;-57
2023/07/13 12:48:09;;;;;;;5.55;1.70;;;;;;;;;;5004716;28;20040;-58
2023/07/13 12:50:38;;;;;;;9.27;1.87;;;;;;;;;;4972133;28;20229;-58
2023/07/13 12:53:08;;;;;;;6.53;1.35;;;;;;;;;;4657150;28;9999722;-58
2023/07/13 12:55:42;;;;;;;7.05;1.48;;;;;;;;;;4991554;28;20052;-58
2023/07/13 12:58:15;;;;;;;4.03;1.05;;;;;;;;;;5002991;28;20041;-58
2023/07/13 13:00:49;;;;;;;4.28;1.27;;;;;;;;;;4991752;28;21198;-58
2023/07/13 13:03:22;;;;;;;6.57;1.50;;;;;;;;;;4996678;28;20049;-58
2023/07/13 13:06:02;;;;;;;3.80;1.10;;;;;;;;;;5001647;28;20051;-57
2023/07/13 13:08:30;;;;;;;4.85;1.90;;;;;;;;;;4990885;28;20045;-57
2023/07/13 13:10:58;;;;;;;6.40;1.10;;;;;;;;;;4991392;28;20055;-57
2023/07/13 13:13:26;;;;;;;4.45;1.33;;;;;;;;;;4992070;28;20057;-57
2023/07/13 13:15:56;;;;;;;4.17;1.37;;;;;;;;;;5010988;28;20630;-57
2023/07/13 13:18:24;;;;;;;4.60;1.17;;;;;;;;;;4995312;28;20045;-57
2023/07/13 13:20:52;;;;;;;4.25;1.20;;;;;;;;;;5002004;28;20049;-59
2023/07/13 13:23:22;;;;;;;5.22;1.33;;;;;;;;;;4993916;28;20045;-54
2023/07/13 13:25:52;;;;;;;5.10;1.30;;;;;;;;;;5007426;28;20045;-57
2023/07/13 13:28:22;;;;;;;4.77;1.10;;;;;;;;;;5002579;28;20044;-56
2023/07/13 13:30:51;;;;;;;4.22;1.40;;;;;;;;;;4982202;28;20053;-57
2023/07/13 13:33:21;;;;;;;5.22;1.42;;;;;;;;;;5009782;28;20033;-58
2023/07/13 13:35:49;;;;;;;4.30;1.20;;;;;;;;;;5006417;28;20049;-58
2023/07/13 13:38:18;;;;;;;3.85;1.23;;;;;;;;;;5004277;28;20055;-57
2023/07/13 13:40:46;;;;;;;4.83;1.00;;;;;;;;;;4984491;28;20049;-58
2023/07/13 13:43:17;;;;;;;7.45;1.55;;;;;;;;;;5000220;28;20060;-58
2023/07/13 13:45:46;;;;;;;4.70;1.58;;;;;;;;;;4994061;28;20045;-58
2023/07/13 13:48:18;;;;;;;4.22;1.15;;;;;;;;;;5006738;28;20075;-58
2023/07/13 13:50:48;;;;;;;4.68;1.50;;;;;;;;;;4978178;28;20644;-57
2023/07/13 13:53:15;;;;;;;6.63;1.47;;;;;;;;;;5008026;28;21420;-57
2023/07/13 13:55:43;;;;;;;4.47;1.23;;;;;;;;;;4996857;28;20045;-58
2023/07/13 13:58:11;;;;;;;5.05;1.35;;;;;;;;;;5006324;28;20069;-58
2023/07/13 14:00:39;;;;;;;4.20;1.27;;;;;;;;;;4986325;28;20049;-58
2023/07/13 14:03:18;;;;;;;6.10;1.65;;;;;;;;;;4998737;28;20403;-58
2023/07/13 14:05:46;;;;;;;4.20;1.40;;;;;;;;;;5005522;28;20036;-59
2023/07/13 14:08:17;;;;;;;4.28;1.27;;;;;;;;;;4991017;28;20974;-57
2023/07/13 14:10:48;;;;;;;5.20;1.63;;;;;;;;;;4995123;28;20344;-59
2023/07/13 14:13:18;;;;;;;4.88;1.55;;;;;;;;;;5003309;28;20068;-58
2023/07/13 14:15:46;;;;;;;5.20;1.00;;;;;;;;;;5003750;28;20608;-58
2023/07/13 14:18:17;;;;;;;7.03;2.13;;;;;;;;;;4984797;28;20037;-59
2023/07/13 14:20:45;;;;;;;6.35;1.73;;;;;;;;;;5003109;28;20053;-58
2023/07/13 14:23:13;;;;;;;4.53;1.60;;;;;;;;;;4997570;28;20032;-58
2023/07/13 14:25:42;;;;;;;4.95;1.48;;;;;;;;;;4992603;28;20060;-58
2023/07/13 14:28:18;;;;;;;4.28;1.13;;;;;;;;;;5001896;28;20045;-58
2023/07/13 14:30:47;;;;;;;4.33;1.40;;;;;;;;;;4986346;28;20128;-58
2023/07/13 14:33:15;;;;;;;4.10;1.50;;;;;;;;;;5005980;28;20064;-59
2023/07/13 14:35:43;;;;;;;6.45;1.45;;;;;;;;;;4998898;28;20518;-58
2023/07/13 14:38:12;;;;;;;5.22;1.45;;;;;;;;;;5001634;28;20040;-58
2023/07/13 14:40:40;;;;;;;5.72;0.93;;;;;;;;;;4989756;28;20048;-57
2023/07/13 14:43:12;;;;;;;4.87;1.33;;;;;;;;;;4997910;28;20037;-58
2023/07/13 14:45:41;;;;;;;4.95;1.40;;;;;;;;;;5003936;28;20045;-58
2023/07/13 14:48:16;;;;;;;5.47;1.83;;;;;;;;;;5007013;28;20040;-58
2023/07/13 14:50:44;;;;;;;5.28;1.40;;;;;;;;;;4985771;28;20555;-58
2023/07/13 14:53:11;;;;;;;5.55;1.70;;;;;;;;;;4998039;28;20418;-58
2023/07/13 14:55:39;;;;;;;4.77;1.20;;;;;;;;;;4639171;28;9999870;-58